Time;durP1;ratioP1;P1;durP2;ratioP2;P2;SDS_P1;SDS_P2;PMS_P1;PMS_P2;Temp;Humidity;BMP_temperature;BMP_pressure;BME280_temperature;BME280_humidity;BME280_pressure;Samples;Min_cycle;Max_cycle;Signal;HPM_P1;HPM_P2
2022/03/01 00:00:17;;;;;;;15.60;9.63;;;2.90;70.10;;;;;;5020751;28;20454;-50
2022/03/01 00:02:45;;;;;;;14.60;9.40;;;2.90;70.20;;;;;;5004614;28;20546;-49
2022/03/01 00:05:12;;;;;;;14.47;8.70;;;2.80;70.20;;;;;;5023368;28;20474;-49
2022/03/01 00:07:39;;;;;;;15.13;11.43;;;2.80;70.20;;;;;;5008149;28;20970;-49
2022/03/01 00:10:06;;;;;;;15.67;9.30;;;2.70;70.30;;;;;;5019821;28;20455;-49
2022/03/01 00:12:33;;;;;;;13.40;8.83;;;2.70;70.40;;;;;;5004283;28;20534;-49
2022/03/01 00:15:00;;;;;;;13.20;9.60;;;2.70;70.60;;;;;;5005774;28;20483;-50
2022/03/01 00:17:27;;;;;;;14.40;9.17;;;2.70;70.60;;;;;;5032945;28;20574;-50
2022/03/01 00:19:54;;;;;;;12.10;8.83;;;2.70;70.60;;;;;;5008525;28;21046;-50
2022/03/01 00:22:21;;;;;;;18.07;9.73;;;2.60;70.60;;;;;;5019017;28;20543;-50
2022/03/01 00:24:48;;;;;;;14.37;9.40;;;2.60;70.70;;;;;;5015869;28;20496;-50
2022/03/01 00:27:15;;;;;;;18.97;9.97;;;2.60;71.00;;;;;;5016090;28;20479;-50
2022/03/01 00:29:42;;;;;;;16.00;9.40;;;2.60;71.00;;;;;;5023138;28;20573;-50
2022/03/01 00:32:10;;;;;;;13.40;8.63;;;2.60;71.20;;;;;;5022292;28;20455;-50
2022/03/01 00:34:37;;;;;;;14.90;10.03;;;2.70;71.30;;;;;;5019944;28;20793;-50
2022/03/01 00:37:04;;;;;;;10.80;9.40;;;2.60;71.00;;;;;;5024084;28;20473;-50
2022/03/01 00:39:32;;;;;;;11.63;8.30;;;2.60;70.90;;;;;;5007212;28;20882;-49
2022/03/01 00:41:58;;;;;;;13.40;8.60;;;2.70;70.10;;;;;;5019922;28;20974;-50
2022/03/01 00:44:25;;;;;;;10.53;8.80;;;2.70;70.00;;;;;;5002393;28;20550;-50
2022/03/01 00:46:52;;;;;;;11.23;7.60;;;2.70;69.90;;;;;;5020627;28;20479;-50
2022/03/01 00:49:19;;;;;;;11.50;7.53;;;2.70;69.30;;;;;;5014891;28;20910;-50
2022/03/01 00:51:46;;;;;;;13.60;8.23;;;2.70;69.20;;;;;;5022295;28;20583;-50
2022/03/01 00:54:13;;;;;;;12.30;8.90;;;2.70;69.20;;;;;;5006249;28;20574;-49
2022/03/01 00:56:40;;;;;;;12.20;8.77;;;2.80;69.00;;;;;;5008677;28;20547;-49
2022/03/01 00:59:08;;;;;;;12.00;8.80;;;2.80;68.80;;;;;;5020502;28;20448;-49
2022/03/01 01:01:35;;;;;;;10.90;7.97;;;2.80;68.50;;;;;;5017837;28;20456;-50
2022/03/01 01:04:02;;;;;;;14.40;9.13;;;2.90;68.30;;;;;;5018625;28;20685;-50
2022/03/01 01:06:29;;;;;;;10.80;8.13;;;2.90;68.20;;;;;;5002859;28;20542;-50
2022/03/01 01:08:56;;;;;;;8.93;7.83;;;2.90;68.10;;;;;;5014467;28;20470;-50
2022/03/01 01:11:23;;;;;;;10.33;8.23;;;2.90;68.00;;;;;;5016182;28;20544;-50
2022/03/01 01:13:50;;;;;;;12.27;8.27;;;2.90;67.60;;;;;;5007230;28;20459;-50
2022/03/01 01:16:17;;;;;;;11.47;7.70;;;2.90;67.40;;;;;;5020656;28;20451;-50
2022/03/01 01:18:44;;;;;;;13.57;8.37;;;2.90;67.60;;;;;;5007965;28;20462;-50
2022/03/01 01:21:12;;;;;;;12.50;8.30;;;2.90;67.80;;;;;;5021520;28;20458;-50
2022/03/01 01:23:41;;;;;;;12.67;8.37;;;2.90;67.50;;;;;;5032153;28;20456;-50
2022/03/01 01:26:08;;;;;;;12.53;8.90;;;3.00;67.00;;;;;;5034194;28;20454;-50
2022/03/01 01:28:36;;;;;;;12.77;8.40;;;3.00;66.70;;;;;;5019369;28;20466;-50
2022/03/01 01:31:03;;;;;;;15.90;8.87;;;2.90;66.90;;;;;;5017717;28;20533;-50
2022/03/01 01:33:30;;;;;;;11.83;8.80;;;3.00;66.80;;;;;;5021131;28;20455;-50
2022/03/01 01:35:57;;;;;;;12.60;9.23;;;3.00;66.70;;;;;;5024426;28;20490;-50
2022/03/01 01:38:24;;;;;;;11.60;8.53;;;3.00;66.80;;;;;;5023449;28;20876;-50
2022/03/01 01:40:50;;;;;;;10.90;8.20;;;3.00;66.60;;;;;;5023966;28;20452;-49
2022/03/01 01:43:18;;;;;;;11.67;8.20;;;3.00;66.70;;;;;;5017357;28;20456;-50
2022/03/01 01:45:44;;;;;;;11.43;7.77;;;3.00;66.50;;;;;;5024834;28;20818;-49
2022/03/01 01:48:13;;;;;;;9.37;7.00;;;3.00;66.10;;;;;;5009649;28;20471;-49
2022/03/01 01:50:40;;;;;;;11.43;6.80;;;3.00;66.10;;;;;;5025144;28;20856;-49
2022/03/01 01:53:07;;;;;;;11.53;8.37;;;3.00;65.80;;;;;;5017246;28;20462;-49
2022/03/01 01:55:35;;;;;;;15.03;8.03;;;3.00;65.80;;;;;;5025030;28;20479;-50
2022/03/01 01:58:02;;;;;;;19.07;7.93;;;3.00;65.70;;;;;;5037966;28;20524;-49
2022/03/01 02:00:29;;;;;;;10.00;7.30;;;3.10;65.60;;;;;;5023496;28;20464;-49
2022/03/01 02:02:57;;;;;;;14.23;8.63;;;3.00;65.70;;;;;;5025439;28;20487;-49
2022/03/01 02:05:26;;;;;;;11.60;7.80;;;3.10;65.60;;;;;;5019809;28;20463;-49
2022/03/01 02:07:52;;;;;;;13.53;8.93;;;3.10;65.30;;;;;;5036408;28;20563;-49
2022/03/01 02:10:19;;;;;;;12.83;7.50;;;3.10;65.40;;;;;;5022388;28;20524;-49
2022/03/01 02:12:46;;;;;;;11.70;7.07;;;3.10;65.70;;;;;;5021688;28;20546;-49
2022/03/01 02:15:14;;;;;;;12.20;7.33;;;3.00;65.70;;;;;;5015897;28;20509;-49
2022/03/01 02:17:42;;;;;;;13.23;8.47;;;3.00;65.70;;;;;;5033496;28;20459;-49
2022/03/01 02:20:15;;;;;;;10.77;7.43;;;3.00;65.60;;;;;;5001512;28;21189;-50
2022/03/01 02:22:42;;;;;;;16.67;9.20;;;3.00;65.30;;;;;;5020733;28;20459;-49
2022/03/01 02:25:09;;;;;;;13.03;7.47;;;2.90;65.10;;;;;;5010322;28;20968;-49
2022/03/01 02:27:36;;;;;;;13.40;7.87;;;3.00;65.10;;;;;;5020886;28;20563;-49
2022/03/01 02:30:06;;;;;;;13.20;7.67;;;3.00;64.80;;;;;;5019052;28;20459;-49
2022/03/01 02:32:33;;;;;;;14.70;8.73;;;3.00;64.70;;;;;;5014946;28;20470;-49
2022/03/01 02:35:00;;;;;;;14.80;8.73;;;3.00;64.60;;;;;;5002136;28;20495;-49
2022/03/01 02:37:27;;;;;;;12.40;9.03;;;3.00;64.60;;;;;;5019139;28;20454;-49
2022/03/01 02:39:54;;;;;;;11.33;8.07;;;3.00;64.60;;;;;;5010184;28;20475;-50
2022/03/01 02:42:21;;;;;;;13.80;8.10;;;3.00;64.70;;;;;;5017953;28;20463;-49
2022/03/01 02:44:49;;;;;;;11.20;8.13;;;3.00;64.20;;;;;;5020633;28;21247;-49
2022/03/01 02:47:16;;;;;;;10.53;8.13;;;3.00;64.20;;;;;;5017995;28;20483;-50
2022/03/01 02:49:44;;;;;;;11.40;7.60;;;3.00;64.40;;;;;;5002302;28;20468;-50
2022/03/01 02:52:11;;;;;;;13.43;8.90;;;3.00;64.30;;;;;;5001732;28;20466;-49
2022/03/01 02:54:37;;;;;;;14.23;9.03;;;3.00;64.40;;;;;;5006179;28;20488;-49
2022/03/01 02:57:04;;;;;;;12.10;7.60;;;3.00;64.10;;;;;;5018339;28;20451;-50
2022/03/01 02:59:31;;;;;;;11.53;8.23;;;3.00;63.90;;;;;;5017602;28;21152;-50
2022/03/01 03:01:58;;;;;;;11.80;8.27;;;3.00;63.80;;;;;;5017103;28;20838;-50
2022/03/01 03:04:25;;;;;;;15.37;8.33;;;3.00;63.70;;;;;;5019394;28;20472;-50
2022/03/01 03:06:53;;;;;;;7.87;7.07;;;3.00;63.70;;;;;;5001332;28;21281;-49
2022/03/01 03:09:21;;;;;;;11.27;7.97;;;3.00;64.00;;;;;;5005428;28;20963;-49
2022/03/01 03:11:48;;;;;;;9.80;7.80;;;3.00;64.20;;;;;;5020865;28;20522;-49
2022/03/01 03:14:15;;;;;;;12.13;8.50;;;3.00;64.20;;;;;;5017547;28;20466;-50
2022/03/01 03:16:44;;;;;;;12.87;8.57;;;3.00;64.10;;;;;;5020489;28;20537;-50
2022/03/01 03:19:15;;;;;;;11.50;8.03;;;3.00;63.90;;;;;;5003200;28;20958;-50
2022/03/01 03:21:46;;;;;;;11.10;8.07;;;3.00;63.90;;;;;;5025993;28;20488;-50
2022/03/01 03:24:14;;;;;;;14.27;9.00;;;3.00;64.00;;;;;;5004177;28;20467;-50
2022/03/01 03:26:42;;;;;;;15.67;8.20;;;3.00;64.20;;;;;;5020160;28;20463;-49
2022/03/01 03:29:09;;;;;;;15.33;9.37;;;2.90;64.20;;;;;;5002902;28;20482;-49
2022/03/01 03:31:37;;;;;;;9.40;7.80;;;2.90;64.00;;;;;;5022472;28;20546;-50
2022/03/01 03:34:07;;;;;;;13.23;7.97;;;2.90;64.10;;;;;;5026295;28;20962;-49
2022/03/01 03:36:39;;;;;;;11.97;7.80;;;2.90;64.20;;;;;;5002498;28;20891;-49
2022/03/01 03:39:08;;;;;;;12.87;7.67;;;2.90;64.10;;;;;;5022026;28;20459;-46
2022/03/01 03:41:35;;;;;;;13.93;8.13;;;2.80;64.20;;;;;;5017171;28;20457;-46
2022/03/01 03:44:03;;;;;;;17.27;9.40;;;2.80;64.50;;;;;;5021347;28;21045;-48
2022/03/01 03:46:29;;;;;;;14.23;9.43;;;2.80;64.40;;;;;;5030219;28;20894;-48
2022/03/01 03:48:56;;;;;;;16.93;8.63;;;2.70;64.60;;;;;;5032733;28;20466;-48
2022/03/01 03:51:23;;;;;;;13.67;9.63;;;2.60;64.80;;;;;;5032746;28;20780;-48
2022/03/01 03:53:50;;;;;;;12.63;8.37;;;2.50;64.90;;;;;;5017531;28;20451;-48
2022/03/01 03:56:17;;;;;;;11.87;8.20;;;2.50;65.10;;;;;;5032583;28;20492;-48
2022/03/01 03:58:44;;;;;;;15.80;9.17;;;2.50;65.20;;;;;;5029753;28;20456;-48
2022/03/01 04:01:11;;;;;;;18.77;8.73;;;2.40;65.30;;;;;;5030265;28;20471;-48
2022/03/01 04:03:38;;;;;;;14.20;8.30;;;2.40;65.50;;;;;;5035417;28;20455;-48
2022/03/01 04:06:06;;;;;;;12.50;8.23;;;2.40;65.70;;;;;;5034837;28;20509;-48
2022/03/01 04:08:34;;;;;;;9.90;7.30;;;2.30;65.80;;;;;;5031639;28;20455;-48
2022/03/01 04:11:01;;;;;;;17.10;9.60;;;2.40;66.00;;;;;;5033146;28;20475;-48
2022/03/01 04:13:27;;;;;;;15.17;9.67;;;2.40;66.00;;;;;;5035556;28;20479;-48
2022/03/01 04:15:54;;;;;;;19.73;9.60;;;2.30;66.00;;;;;;5034692;28;20483;-48
2022/03/01 04:18:21;;;;;;;12.30;8.80;;;2.30;66.30;;;;;;5034383;28;20451;-48
2022/03/01 04:20:48;;;;;;;13.53;8.30;;;2.30;66.20;;;;;;5030190;28;20529;-48
2022/03/01 04:23:15;;;;;;;13.03;8.77;;;2.30;66.30;;;;;;5031860;28;20461;-48
2022/03/01 04:25:42;;;;;;;10.67;8.13;;;2.30;66.40;;;;;;5033102;28;20582;-48
2022/03/01 04:28:11;;;;;;;14.37;9.20;;;2.20;66.40;;;;;;5014701;28;20468;-48
2022/03/01 04:30:38;;;;;;;13.20;9.10;;;2.20;66.50;;;;;;5034944;28;20474;-48
2022/03/01 04:33:05;;;;;;;12.07;8.53;;;2.20;66.60;;;;;;5033228;28;20467;-48
2022/03/01 04:35:32;;;;;;;14.27;8.77;;;2.20;66.60;;;;;;5032533;28;20480;-48
2022/03/01 04:37:59;;;;;;;18.93;9.50;;;2.20;66.20;;;;;;5028325;28;20523;-48
2022/03/01 04:40:26;;;;;;;14.40;8.17;;;2.20;66.00;;;;;;5026476;28;20535;-48
2022/03/01 04:42:53;;;;;;;13.77;8.67;;;2.20;66.00;;;;;;5029932;28;20523;-48
2022/03/01 04:45:20;;;;;;;16.87;8.43;;;2.20;66.00;;;;;;5036479;28;20558;-48
2022/03/01 04:47:47;;;;;;;12.70;8.17;;;2.10;66.20;;;;;;5031966;28;20931;-48
2022/03/01 04:50:13;;;;;;;17.43;10.13;;;2.10;66.40;;;;;;5036070;28;20896;-48
2022/03/01 04:52:40;;;;;;;13.13;10.53;;;2.10;66.40;;;;;;5015251;28;20972;-48
2022/03/01 04:55:09;;;;;;;13.43;8.00;;;2.10;66.50;;;;;;5030504;28;20506;-48
2022/03/01 04:57:35;;;;;;;16.30;9.17;;;2.10;66.60;;;;;;5027867;28;20471;-48
2022/03/01 05:00:06;;;;;;;14.83;9.50;;;2.00;66.60;;;;;;5034605;28;20466;-48
2022/03/01 05:02:33;;;;;;;12.87;8.90;;;2.00;66.60;;;;;;5018245;28;20487;-48
2022/03/01 05:05:00;;;;;;;12.90;8.20;;;2.00;66.70;;;;;;5045123;28;20462;-47
2022/03/01 05:07:26;;;;;;;14.67;9.10;;;2.00;66.60;;;;;;5031531;28;20471;-47
2022/03/01 05:09:54;;;;;;;17.93;9.60;;;2.00;66.60;;;;;;5036509;28;20487;-48
2022/03/01 05:12:43;;;;;;;13.57;8.73;;;1.90;66.70;;;;;;5035847;28;20515;-47
2022/03/01 05:15:10;;;;;;;17.97;9.13;;;1.90;66.80;;;;;;5048364;28;20988;-47
2022/03/01 05:17:39;;;;;;;13.80;8.57;;;1.90;66.70;;;;;;5036647;28;20462;-47
2022/03/01 05:20:06;;;;;;;15.03;8.77;;;1.90;66.80;;;;;;5035077;28;20482;-48
2022/03/01 05:22:36;;;;;;;13.60;8.57;;;1.80;66.90;;;;;;5035071;28;20498;-47
2022/03/01 05:25:11;;;;;;;15.10;9.53;;;1.90;67.10;;;;;;5036635;28;20544;-48
2022/03/01 05:27:42;;;;;;;13.70;8.67;;;1.90;66.90;;;;;;5020532;28;20446;-48
2022/03/01 05:30:11;;;;;;;16.87;10.13;;;1.80;66.90;;;;;;5035762;28;20455;-48
2022/03/01 05:32:41;;;;;;;14.00;7.53;;;1.80;66.90;;;;;;5019885;28;20502;-47
2022/03/01 05:35:09;;;;;;;16.17;9.13;;;1.70;67.60;;;;;;5039709;28;20486;-47
2022/03/01 05:37:41;;;;;;;15.10;9.20;;;1.80;68.00;;;;;;5038566;28;20467;-48
2022/03/01 05:40:09;;;;;;;16.10;8.83;;;1.70;68.00;;;;;;5041869;28;20557;-47
2022/03/01 05:42:37;;;;;;;18.37;10.37;;;1.70;68.10;;;;;;5038878;28;20553;-47
2022/03/01 05:45:04;;;;;;;15.83;8.83;;;1.60;68.10;;;;;;5035925;28;20466;-48
2022/03/01 05:47:31;;;;;;;14.83;8.70;;;1.60;68.10;;;;;;5027681;28;20478;-48
2022/03/01 05:49:58;;;;;;;15.07;9.23;;;1.60;68.00;;;;;;5035191;28;20550;-48
2022/03/01 05:52:25;;;;;;;14.07;9.33;;;1.60;68.10;;;;;;5037286;28;20878;-48
2022/03/01 05:54:51;;;;;;;13.90;9.40;;;1.60;68.00;;;;;;5032529;28;20484;-48
2022/03/01 05:57:18;;;;;;;13.47;9.20;;;1.60;67.90;;;;;;5031530;28;20492;-48
2022/03/01 05:59:45;;;;;;;13.43;9.63;;;1.60;67.70;;;;;;5034527;28;20463;-48
2022/03/01 06:02:12;;;;;;;19.07;9.33;;;1.60;67.70;;;;;;5022659;28;20665;-48
2022/03/01 06:04:39;;;;;;;20.03;9.27;;;1.60;67.40;;;;;;5020162;28;20463;-48
2022/03/01 06:07:05;;;;;;;15.43;9.10;;;1.60;67.30;;;;;;5041371;28;20541;-49
2022/03/01 06:09:32;;;;;;;15.37;9.40;;;1.60;67.10;;;;;;5041761;28;20546;-48
2022/03/01 06:11:59;;;;;;;15.90;10.20;;;1.60;67.10;;;;;;5024276;28;21016;-48
2022/03/01 06:14:26;;;;;;;20.93;10.17;;;1.60;67.00;;;;;;5043399;28;20472;-48
2022/03/01 06:16:52;;;;;;;15.97;9.50;;;1.60;67.00;;;;;;5035391;28;20864;-48
2022/03/01 06:19:19;;;;;;;17.87;9.67;;;1.60;67.00;;;;;;5027192;28;20546;-48
2022/03/01 06:21:46;;;;;;;17.83;10.80;;;1.60;66.90;;;;;;5036835;28;20460;-48
2022/03/01 06:24:14;;;;;;;11.03;8.83;;;1.60;66.90;;;;;;5034310;28;20960;-47
2022/03/01 06:26:42;;;;;;;15.43;9.80;;;1.60;66.90;;;;;;5040898;28;20462;-48
2022/03/01 06:29:09;;;;;;;18.97;10.90;;;1.60;66.90;;;;;;5043530;28;20512;-48
2022/03/01 06:31:36;;;;;;;13.57;9.13;;;1.50;67.00;;;;;;5036963;28;20881;-48
2022/03/01 06:34:03;;;;;;;14.30;8.97;;;1.50;67.00;;;;;;5041195;28;20460;-47
2022/03/01 06:36:29;;;;;;;15.53;10.13;;;1.60;67.10;;;;;;5039989;28;20930;-47
2022/03/01 06:38:56;;;;;;;13.67;9.70;;;1.60;67.00;;;;;;5038558;28;20456;-48
2022/03/01 06:41:23;;;;;;;16.83;9.70;;;1.60;66.80;;;;;;5038041;28;20901;-48
2022/03/01 06:43:50;;;;;;;14.30;8.40;;;1.60;66.80;;;;;;5037755;28;20455;-48
2022/03/01 06:46:17;;;;;;;15.57;9.87;;;1.60;66.40;;;;;;5020173;28;20475;-48
2022/03/01 06:48:44;;;;;;;17.57;9.57;;;1.70;66.20;;;;;;5037329;28;20691;-48
2022/03/01 06:51:13;;;;;;;16.90;8.83;;;1.70;66.00;;;;;;5040530;28;20464;-48
2022/03/01 06:53:40;;;;;;;16.93;9.00;;;1.80;65.80;;;;;;5035263;28;21002;-48
2022/03/01 06:56:07;;;;;;;14.23;8.40;;;1.80;65.50;;;;;;5037996;28;20496;-48
2022/03/01 06:58:33;;;;;;;14.33;8.87;;;1.80;65.40;;;;;;5040020;28;20795;-48
2022/03/01 07:01:03;;;;;;;17.63;9.07;;;1.90;65.50;;;;;;5030091;28;20945;-47
2022/03/01 07:03:30;;;;;;;14.50;8.90;;;1.80;65.40;;;;;;5019746;28;20987;-47
2022/03/01 07:05:57;;;;;;;12.03;8.80;;;1.80;65.40;;;;;;5032672;28;20475;-46
2022/03/01 07:08:25;;;;;;;16.90;9.80;;;1.90;65.10;;;;;;5032217;28;20479;-47
2022/03/01 07:10:53;;;;;;;12.27;8.83;;;1.90;64.90;;;;;;5034391;28;20457;-47
2022/03/01 07:13:19;;;;;;;15.43;9.60;;;1.90;64.90;;;;;;5029937;28;20444;-47
2022/03/01 07:15:46;;;;;;;18.20;10.57;;;1.90;64.80;;;;;;5033669;28;20550;-46
2022/03/01 07:18:13;;;;;;;13.57;10.30;;;2.00;64.80;;;;;;5035109;28;20470;-46
2022/03/01 07:20:40;;;;;;;15.40;9.50;;;2.10;64.40;;;;;;5015764;28;20491;-46
2022/03/01 07:23:07;;;;;;;12.03;8.40;;;2.10;63.80;;;;;;5026144;28;20448;-46
2022/03/01 07:25:34;;;;;;;13.47;9.07;;;2.10;63.40;;;;;;5041876;28;20928;-46
2022/03/01 07:28:00;;;;;;;15.40;8.97;;;2.10;63.20;;;;;;5030472;28;20536;-46
2022/03/01 07:30:27;;;;;;;12.87;9.63;;;2.20;63.30;;;;;;5027007;28;20467;-46
2022/03/01 07:33:01;;;;;;;12.60;9.53;;;2.20;63.40;;;;;;5031210;28;20838;-47
2022/03/01 07:35:29;;;;;;;14.93;9.40;;;2.10;62.50;;;;;;5024342;28;20483;-47
2022/03/01 07:37:57;;;;;;;20.00;9.57;;;2.10;61.50;;;;;;5031191;28;20455;-46
2022/03/01 07:40:26;;;;;;;12.27;8.83;;;2.20;62.20;;;;;;5028743;28;20443;-47
2022/03/01 07:42:54;;;;;;;13.97;9.10;;;2.20;62.00;;;;;;5025286;28;20459;-47
2022/03/01 07:45:21;;;;;;;11.83;8.20;;;2.20;62.20;;;;;;5026377;28;20987;-47
2022/03/01 07:47:50;;;;;;;16.00;9.30;;;2.20;61.70;;;;;;5026535;28;20495;-47
2022/03/01 07:50:18;;;;;;;15.17;9.30;;;2.30;61.60;;;;;;5017009;28;20487;-47
2022/03/01 07:52:46;;;;;;;13.17;9.17;;;2.40;61.60;;;;;;5028560;28;20460;-47
2022/03/01 07:55:14;;;;;;;14.10;9.47;;;2.50;62.20;;;;;;5031549;28;20449;-47
2022/03/01 07:57:40;;;;;;;15.67;9.80;;;2.60;61.80;;;;;;5010511;28;20550;-47
2022/03/01 08:00:09;;;;;;;15.00;11.33;;;2.70;61.70;;;;;;5026996;28;20451;-47
2022/03/01 08:02:40;;;;;;;14.00;9.20;;;2.70;61.00;;;;;;5032125;28;20490;-47
2022/03/01 08:05:08;;;;;;;14.73;8.80;;;2.70;60.50;;;;;;5025934;28;21035;-47
2022/03/01 08:07:47;;;;;;;17.17;9.93;;;2.70;60.40;;;;;;5027209;28;20443;-47
2022/03/01 08:10:14;;;;;;;12.80;10.90;;;2.70;59.60;;;;;;5008465;28;20439;-47
2022/03/01 08:12:41;;;;;;;18.93;8.60;;;2.80;59.50;;;;;;5042684;28;20495;-47
2022/03/01 08:15:09;;;;;;;16.33;9.43;;;2.80;58.90;;;;;;5012631;28;20447;-47
2022/03/01 08:17:36;;;;;;;11.77;9.00;;;2.90;58.90;;;;;;5024918;28;20542;-47
2022/03/01 08:20:03;;;;;;;16.50;8.40;;;2.90;58.90;;;;;;5026905;28;20465;-47
2022/03/01 08:22:29;;;;;;;13.47;9.30;;;3.00;59.40;;;;;;5026126;28;20541;-46
2022/03/01 08:24:56;;;;;;;14.70;9.40;;;3.10;58.10;;;;;;5025498;28;20527;-46
2022/03/01 08:27:23;;;;;;;15.40;9.00;;;3.20;58.20;;;;;;5011457;28;20463;-46
2022/03/01 08:29:50;;;;;;;12.67;9.77;;;3.40;57.00;;;;;;5024649;28;20516;-47
2022/03/01 08:32:16;;;;;;;14.33;8.87;;;3.40;57.10;;;;;;5008380;28;20456;-46
2022/03/01 08:34:43;;;;;;;13.23;8.87;;;3.60;57.10;;;;;;5042526;28;20574;-46
2022/03/01 08:37:10;;;;;;;12.37;9.00;;;3.70;56.00;;;;;;5028106;28;20491;-46
2022/03/01 08:39:36;;;;;;;14.40;9.63;;;3.80;55.80;;;;;;5030843;28;20445;-46
2022/03/01 08:42:03;;;;;;;19.60;10.47;;;3.90;55.20;;;;;;5015616;28;20499;-47
2022/03/01 08:44:30;;;;;;;12.93;9.60;;;4.00;55.20;;;;;;5021774;28;20531;-47
2022/03/01 08:46:59;;;;;;;14.97;9.27;;;4.10;55.10;;;;;;5009172;28;20491;-47
2022/03/01 08:49:26;;;;;;;16.07;9.90;;;4.20;54.40;;;;;;5029123;28;21270;-46
2022/03/01 08:51:53;;;;;;;15.00;9.47;;;4.20;54.10;;;;;;5031215;28;20478;-46
2022/03/01 08:54:20;;;;;;;14.27;9.90;;;4.30;53.90;;;;;;5018361;28;20458;-46
2022/03/01 08:56:46;;;;;;;14.83;11.03;;;4.40;53.80;;;;;;5030588;28;20551;-46
2022/03/01 08:59:13;;;;;;;10.47;8.10;;;4.50;54.00;;;;;;5019779;28;20821;-46
2022/03/01 09:01:40;;;;;;;11.20;9.37;;;4.60;53.50;;;;;;5032911;28;20455;-46
2022/03/01 09:04:07;;;;;;;15.30;9.20;;;4.70;53.30;;;;;;5029912;28;20463;-46
2022/03/01 09:06:34;;;;;;;14.70;10.33;;;4.80;54.30;;;;;;5034676;28;20459;-46
2022/03/01 09:09:01;;;;;;;14.80;11.00;;;4.80;53.40;;;;;;5020789;28;20448;-46
2022/03/01 09:11:27;;;;;;;13.90;8.80;;;4.70;52.80;;;;;;5045585;28;20518;-47
2022/03/01 09:13:54;;;;;;;13.13;8.93;;;4.70;52.90;;;;;;5035313;28;20488;-46
2022/03/01 09:16:21;;;;;;;12.73;9.60;;;4.60;52.80;;;;;;5035928;28;21057;-46
2022/03/01 09:18:48;;;;;;;14.27;9.53;;;4.70;53.60;;;;;;5033922;28;20534;-47
2022/03/01 09:21:15;;;;;;;12.67;9.73;;;4.70;54.00;;;;;;5034718;28;20458;-47
2022/03/01 09:23:43;;;;;;;19.93;9.90;;;4.80;54.10;;;;;;5032530;28;20452;-47
2022/03/01 09:26:10;;;;;;;13.57;9.63;;;4.80;52.80;;;;;;5033459;28;20489;-47
2022/03/01 09:28:37;;;;;;;15.90;10.30;;;4.90;53.30;;;;;;5034816;28;20524;-47
2022/03/01 09:31:04;;;;;;;9.97;8.53;;;4.90;52.80;;;;;;5033313;28;20890;-47
2022/03/01 09:33:31;;;;;;;13.97;9.47;;;4.90;52.80;;;;;;5031174;28;20452;-47
2022/03/01 09:35:58;;;;;;;15.20;9.80;;;4.90;52.80;;;;;;5029512;28;20503;-47
2022/03/01 09:38:26;;;;;;;14.80;9.47;;;5.00;53.30;;;;;;5034969;28;20439;-47
2022/03/01 09:40:53;;;;;;;12.73;8.70;;;5.10;52.70;;;;;;5034641;28;20463;-47
2022/03/01 09:43:21;;;;;;;17.13;9.20;;;5.20;52.30;;;;;;5035962;28;20535;-47
2022/03/01 09:45:47;;;;;;;12.90;8.50;;;5.30;52.20;;;;;;5033746;28;20451;-47
2022/03/01 09:48:14;;;;;;;17.07;9.03;;;5.40;51.70;;;;;;5025182;28;20575;-47
2022/03/01 09:50:42;;;;;;;13.93;8.70;;;5.50;52.10;;;;;;5030624;28;20559;-47
2022/03/01 09:53:09;;;;;;;12.93;8.63;;;5.60;51.60;;;;;;5027856;28;20463;-47
2022/03/01 09:55:35;;;;;;;15.20;10.00;;;5.70;52.10;;;;;;5028668;28;20961;-47
2022/03/01 09:58:03;;;;;;;14.33;10.03;;;5.70;51.60;;;;;;5030436;28;21087;-47
2022/03/01 10:00:29;;;;;;;13.33;8.57;;;5.80;51.60;;;;;;5028350;28;20503;-47
2022/03/01 10:02:58;;;;;;;15.27;8.40;;;5.80;51.70;;;;;;5031458;28;20448;-47
2022/03/01 10:05:40;;;;;;;11.00;8.40;;;5.90;51.00;;;;;;5032917;28;20460;-47
2022/03/01 10:08:09;;;;;;;10.83;7.50;;;5.90;50.60;;;;;;5032978;28;20466;-47
2022/03/01 10:10:49;;;;;;;13.03;8.90;;;6.00;50.10;;;;;;5029312;28;20463;-47
2022/03/01 10:13:27;;;;;;;14.17;8.80;;;6.00;50.40;;;;;;5027487;28;20493;-46
2022/03/01 10:16:15;;;;;;;15.23;9.90;;;6.10;50.30;;;;;;5029952;28;20812;-46
2022/03/01 10:18:50;;;;;;;12.47;9.27;;;6.50;49.90;;;;;;5029638;28;20464;-46
2022/03/01 10:21:19;;;;;;;12.07;9.40;;;6.70;49.00;;;;;;5017192;28;20538;-46
2022/03/01 10:23:48;;;;;;;12.37;8.70;;;6.90;48.90;;;;;;5043017;28;21275;-47
2022/03/01 10:26:18;;;;;;;13.60;9.80;;;7.20;48.10;;;;;;5027393;28;20586;-46
2022/03/01 10:28:46;;;;;;;12.80;9.07;;;7.50;47.60;;;;;;5032082;28;20463;-46
2022/03/01 10:31:14;;;;;;;14.00;9.13;;;7.80;47.10;;;;;;5030215;28;20968;-46
2022/03/01 10:33:56;;;;;;;11.93;9.03;;;7.90;46.50;;;;;;5029691;28;20463;-47
2022/03/01 10:36:26;;;;;;;13.73;8.57;;;8.10;46.90;;;;;;5032300;28;20470;-46
2022/03/01 10:39:17;;;;;;;11.20;8.90;;;8.30;46.10;;;;;;5028821;28;20547;-47
2022/03/01 10:41:45;;;;;;;10.40;8.67;;;8.50;45.00;;;;;;5022769;28;20645;-46
2022/03/01 10:44:26;;;;;;;12.07;9.50;;;8.60;44.50;;;;;;5013424;28;20471;-47
2022/03/01 10:47:02;;;;;;;14.60;9.27;;;8.80;45.20;;;;;;5033533;28;20537;-46
2022/03/01 10:49:32;;;;;;;14.77;9.13;;;9.00;44.70;;;;;;5032430;28;20554;-46
2022/03/01 10:52:05;;;;;;;12.17;8.77;;;9.30;44.30;;;;;;5028900;28;20932;-47
2022/03/01 10:54:38;;;;;;;10.43;9.33;;;9.50;43.50;;;;;;5017452;28;20460;-46
2022/03/01 10:57:07;;;;;;;11.67;7.60;;;9.60;42.60;;;;;;5026540;28;20534;-47
2022/03/01 10:59:37;;;;;;;14.10;8.83;;;9.60;42.50;;;;;;5030190;28;20547;-47
2022/03/01 11:02:07;;;;;;;14.30;8.60;;;9.60;42.40;;;;;;5011547;28;20549;-47
2022/03/01 11:04:34;;;;;;;11.47;8.73;;;9.70;42.30;;;;;;5016993;28;20479;-47
2022/03/01 11:07:04;;;;;;;13.90;9.73;;;9.70;42.40;;;;;;5028054;28;20479;-47
2022/03/01 11:09:33;;;;;;;14.57;9.53;;;9.70;42.60;;;;;;5030986;28;20465;-47
2022/03/01 11:12:01;;;;;;;11.47;9.37;;;9.80;42.90;;;;;;5031883;28;20484;-47
2022/03/01 11:14:30;;;;;;;11.93;9.47;;;9.90;42.80;;;;;;5027249;28;20461;-47
2022/03/01 11:17:01;;;;;;;13.33;10.20;;;10.00;41.70;;;;;;5026394;28;20527;-47
2022/03/01 11:19:46;;;;;;;12.80;9.40;;;10.00;41.70;;;;;;5025660;28;20547;-47
2022/03/01 11:22:26;;;;;;;12.87;9.40;;;10.10;41.30;;;;;;5029580;28;20543;-48
2022/03/01 11:24:54;;;;;;;15.20;9.83;;;10.10;41.80;;;;;;5027031;28;20535;-47
2022/03/01 11:27:23;;;;;;;9.77;8.33;;;10.10;41.80;;;;;;5028689;28;20443;-48
2022/03/01 11:29:51;;;;;;;12.37;8.83;;;10.20;42.70;;;;;;5029032;28;20473;-48
2022/03/01 11:32:22;;;;;;;12.40;8.80;;;10.20;42.30;;;;;;5008607;28;20965;-48
2022/03/01 11:35:01;;;;;;;14.80;10.20;;;10.20;41.70;;;;;;5026187;28;20447;-48
2022/03/01 11:37:28;;;;;;;16.13;9.53;;;10.00;41.20;;;;;;5031210;28;20482;-48
2022/03/01 11:39:57;;;;;;;10.07;8.70;;;9.80;41.40;;;;;;5024527;28;20541;-48
2022/03/01 11:42:24;;;;;;;11.97;8.77;;;9.50;41.60;;;;;;5028780;28;20519;-48
2022/03/01 11:44:54;;;;;;;10.50;8.00;;;9.40;41.70;;;;;;5015287;28;20464;-48
2022/03/01 11:47:30;;;;;;;12.87;8.43;;;9.30;41.70;;;;;;5031791;28;20471;-48
2022/03/01 11:50:18;;;;;;;15.33;8.47;;;9.20;42.40;;;;;;5027157;28;20475;-48
2022/03/01 11:53:14;;;;;;;11.87;8.37;;;9.30;42.70;;;;;;5046537;28;21014;-48
2022/03/01 11:55:49;;;;;;;9.70;7.37;;;9.30;42.20;;;;;;5013747;28;20464;-48
2022/03/01 11:58:17;;;;;;;12.50;8.10;;;9.30;41.40;;;;;;5031597;28;20487;-48
2022/03/01 12:00:46;;;;;;;14.17;9.60;;;9.30;41.50;;;;;;5030641;28;20507;-48
2022/03/01 12:03:16;;;;;;;14.00;8.90;;;9.30;41.80;;;;;;5043798;28;20527;-47
2022/03/01 12:05:46;;;;;;;17.30;9.80;;;9.40;42.00;;;;;;5023133;28;21001;-47
2022/03/01 12:08:14;;;;;;;12.90;9.17;;;9.40;41.60;;;;;;5026537;28;20571;-47
2022/03/01 12:10:57;;;;;;;12.53;7.90;;;9.50;41.30;;;;;;5033046;28;20459;-47
2022/03/01 12:13:37;;;;;;;11.17;8.67;;;9.60;42.00;;;;;;5032782;28;20474;-47
2022/03/01 12:16:05;;;;;;;11.90;8.47;;;9.80;41.80;;;;;;5026834;28;21308;-47
2022/03/01 12:18:38;;;;;;;10.27;9.13;;;9.80;41.30;;;;;;5029069;28;20486;-48
2022/03/01 12:21:11;;;;;;;12.63;8.73;;;9.80;40.60;;;;;;5016234;28;20523;-47
2022/03/01 12:23:40;;;;;;;10.27;7.10;;;9.80;40.40;;;;;;5028092;28;20498;-47
2022/03/01 12:26:12;;;;;;;9.63;8.20;;;9.80;40.40;;;;;;5029830;28;20543;-47
2022/03/01 12:28:40;;;;;;;13.33;8.20;;;9.90;40.40;;;;;;5033210;28;20506;-47
2022/03/01 12:31:13;;;;;;;11.93;8.63;;;9.90;40.20;;;;;;5030205;28;20558;-47
2022/03/01 12:34:08;;;;;;;11.73;8.93;;;10.00;40.10;;;;;;5014189;28;20495;-47
2022/03/01 12:36:41;;;;;;;11.77;8.10;;;10.00;41.10;;;;;;5030781;28;20462;-47
2022/03/01 12:39:16;;;;;;;10.90;8.10;;;10.10;40.20;;;;;;5024782;28;20452;-47
2022/03/01 12:41:48;;;;;;;9.37;8.00;;;10.00;39.70;;;;;;5028515;28;20537;-48
2022/03/01 12:44:17;;;;;;;11.57;7.50;;;10.10;39.90;;;;;;5023982;28;20961;-48
2022/03/01 12:46:45;;;;;;;12.47;8.57;;;10.20;40.00;;;;;;5020118;28;20519;-48
2022/03/01 12:49:13;;;;;;;19.23;11.40;;;10.20;39.30;;;;;;5032884;28;20504;-47
2022/03/01 12:51:41;;;;;;;17.80;11.07;;;10.20;39.80;;;;;;5015776;28;20460;-47